Meteo Giornale » Osservazioni meteo Stati Uniti (USA) » Sterling Rockfalls
ore: 08:56 - Osservazioni Meteo Sterling Rockfalls
Lat. 41° 45' N Lon. 89° 40' W Alt. 197 metri s.l.m.
26 °C
Sereno
Temp. 24 Ore
22 °C
32 °C
Sud-Ovest
9.3 Km/h
Dew point 24 °C
Umidità 88 %
Visibilità 10 Km
Il sole sorge alle ore 06:24
Il sole tramonta alle ore 19:32
| Data e Ora | Cielo e Fenomeni | T °C | DP °C | Um. % | Pres. hPa | Vis. km | Vento km/h | |
|---|---|---|---|---|---|---|---|---|
| Oggi h: 08:56 | Sereno | 26 | 24 | 88 | 1015 | 10 | SO 9.3 | |
| Oggi h: 08:16 | Poco Nuvoloso | 25 | 24 | 94 | 1015 | 10 | N 5.5 | |
| Oggi h: 07:56 | Sereno | 24 | 23 | 94 | 1016 | 10 | N 0 | |
| Oggi h: 06:56 | Sereno | 23 | 23 | 100 | 1015 | 10 | N 5.5 | |
| Oggi h: 06:14 | Foschia | 22 | 22 | 100 | 1014 | 6 | N 0 | |
| Oggi h: 06:04 | Foschia | 22 | 22 | 100 | 1014 | 2 | N 0 | |
| Oggi h: 05:56 | Foschia | 22 | 22 | 100 | 1014 | 2 | N 0 | |
| Oggi h: 04:56 | Sereno | 23 | 23 | 100 | 1014 | 13 | N 0 | |
| Oggi h: 03:56 | Sereno | 24 | 24 | 100 | 1014 | 13 | N 0 | |
| Oggi h: 02:56 | Molto Nuvoloso | 24 | 24 | 100 | 1014 | 10 | N 0 | |
| Oggi h: 01:56 | Poco Nuvoloso | 24 | 24 | 100 | 1014 | 14 | N 0 | |
| Oggi h: 00:56 | Poco Nuvoloso | 24 | 24 | 100 | 1014 | 10 | N 0 | |
| Ieri h: 23:56 | Sereno | 24 | 24 | 100 | 1014 | 10 | N 5.5 | |
| Ieri h: 22:56 | Sereno | 23 | 23 | 100 | 1014 | 10 | N 0 | |
| Ieri h: 21:56 | Sereno | 24 | 24 | 100 | 1014 | 10 | N 5.5 | |
| Ieri h: 20:56 | Sereno | 25 | 24 | 94 | 1014 | 10 | N 5.5 | |
| Ieri h: 19:56 | Sereno | 27 | 23 | 78 | 1013 | 10 | N 0 | |
| Ieri h: 18:56 | Sereno | 28 | 24 | 78 | 1013 | 10 | N 0 | |
| Ieri h: 17:56 | Poco Nuvoloso | 31 | 24 | 66 | 1012 | 10 | N 5.5 | |
| Ieri h: 16:56 | Molto Nuvoloso | 31 | 22 | 58 | 1013 | 10 | O/SO 14.8 | |
| Ieri h: 15:56 | Molto Nuvoloso | 32 | 22 | 55 | 1013 | 10 | SO 13 | |
| Ieri h: 14:56 | Sereno | 32 | 22 | 55 | 1013 | 10 | O/SO 11.1 | |
| Ieri h: 13:56 | Sereno | 32 | 22 | 55 | 1013 | 10 | SO 20.3 | |
| Ieri h: 12:56 | Molto Nuvoloso | 29 | 21 | 62 | 1014 | 10 | O/SO 14.8 | |
| Ieri h: 11:56 | Poco Nuvoloso | 32 | 21 | 52 | 1014 | 10 | SO 24 | |
| Ieri h: 10:56 | Sereno | 30 | 20 | 55 | 1013 | 10 | SO 20.3 | |
| Ieri h: 09:56 | Nuvoloso | 28 | 19 | 58 | 1013 | 10 | N 11.1 | |



